createdAt,value
2023-04-17T00:00:08.411Z,52.22
2023-04-17T00:02:35.286Z,52.74
2023-04-17T00:05:02.061Z,52.61
2023-04-17T00:07:28.719Z,52.79
2023-04-17T00:09:55.316Z,51.83
2023-04-17T00:12:21.916Z,52.74
2023-04-17T00:14:48.530Z,52.70
2023-04-17T00:17:15.125Z,51.96
2023-04-17T00:19:41.797Z,51.86
2023-04-17T00:22:08.391Z,51.92
2023-04-17T00:24:34.992Z,52.11
2023-04-17T00:27:01.576Z,52.42
2023-04-17T00:29:28.209Z,51.89
2023-04-17T00:31:54.802Z,52.19
2023-04-17T00:34:21.429Z,52.38
2023-04-17T00:36:48.015Z,51.53
2023-04-17T00:39:14.768Z,52.30
2023-04-17T00:41:41.481Z,52.60
2023-04-17T00:44:08.084Z,52.69
2023-04-17T00:46:34.723Z,52.05
2023-04-17T00:49:01.314Z,52.54
2023-04-17T00:51:27.910Z,52.06
2023-04-17T00:53:54.578Z,52.27
2023-04-17T00:56:21.256Z,51.59
2023-04-17T00:58:47.837Z,51.04
2023-04-17T01:01:14.478Z,51.06
2023-04-17T01:03:41.262Z,52.15
2023-04-17T01:06:08.077Z,52.14
2023-04-17T01:08:34.820Z,52.36
2023-04-17T01:11:01.414Z,52.90
2023-04-17T01:13:28.006Z,52.21
2023-04-17T01:15:54.752Z,53.11
2023-04-17T01:18:21.777Z,53.13
2023-04-17T01:20:48.404Z,52.82
2023-04-17T01:23:15.009Z,53.21
2023-04-17T01:25:41.919Z,52.82
2023-04-17T01:28:08.515Z,51.87
2023-04-17T01:30:35.188Z,52.08
2023-04-17T01:33:02.385Z,52.11
2023-04-17T01:35:29.082Z,52.24
2023-04-17T01:37:55.656Z,52.26
2023-04-17T01:40:22.254Z,51.99
2023-04-17T01:42:48.838Z,52.70
2023-04-17T01:45:15.477Z,51.93
2023-04-17T01:47:42.113Z,51.56
2023-04-17T01:50:08.791Z,52.30
2023-04-17T01:52:35.781Z,51.98
2023-04-17T01:55:02.353Z,51.88
2023-04-17T01:57:28.933Z,51.84
2023-04-17T01:59:55.631Z,51.26
2023-04-17T02:02:22.373Z,51.69
2023-04-17T02:04:49.097Z,51.31
2023-04-17T02:07:15.650Z,51.60
2023-04-17T02:09:42.256Z,51.95
2023-04-17T02:12:08.829Z,51.53
2023-04-17T02:14:35.449Z,51.25
2023-04-17T02:17:02.136Z,51.46
2023-04-17T02:19:28.730Z,52.33
2023-04-17T02:21:55.306Z,51.93
2023-04-17T02:24:21.870Z,51.00
2023-04-17T02:26:48.456Z,50.73
2023-04-17T02:29:15.145Z,50.41
2023-04-17T02:31:41.865Z,50.41
2023-04-17T02:34:08.426Z,50.34
2023-04-17T02:36:35.048Z,50.67
2023-04-17T02:39:01.612Z,50.06
2023-04-17T02:41:28.234Z,50.02
2023-04-17T02:43:54.836Z,50.45
2023-04-17T02:46:21.462Z,50.05
2023-04-17T02:48:48.055Z,50.35
2023-04-17T02:51:14.643Z,50.04
2023-04-17T02:53:41.217Z,49.45
2023-04-17T02:56:07.925Z,50.41
2023-04-17T02:58:34.668Z,50.41
2023-04-17T03:01:01.690Z,50.12
2023-04-17T03:03:28.598Z,50.53
2023-04-17T03:05:55.327Z,50.09
2023-04-17T03:08:21.949Z,50.48
2023-04-17T03:10:48.477Z,50.59
2023-04-17T03:13:17.541Z,50.43
2023-04-17T03:15:44.125Z,50.82
2023-04-17T03:18:10.722Z,50.40
2023-04-17T03:20:37.318Z,50.64
2023-04-17T03:23:04.002Z,51.00
2023-04-17T03:25:31.965Z,50.91
2023-04-17T03:27:58.684Z,51.17
2023-04-17T03:30:26.188Z,50.50
2023-04-17T03:32:52.831Z,50.75
2023-04-17T03:35:19.448Z,50.28
2023-04-17T03:37:46.027Z,50.59
2023-04-17T03:40:12.731Z,50.13
2023-04-17T03:42:39.669Z,50.11
2023-04-17T03:45:06.267Z,50.42
2023-04-17T03:47:32.873Z,49.87
2023-04-17T03:49:59.541Z,50.22
2023-04-17T03:52:26.170Z,49.69
2023-04-17T03:54:52.729Z,50.34
2023-04-17T03:57:19.310Z,50.10
2023-04-17T03:59:45.906Z,49.42
2023-04-17T04:02:12.647Z,49.73
2023-04-17T04:04:39.384Z,49.84
2023-04-17T04:07:06.140Z,49.69
2023-04-17T04:09:32.848Z,49.91
2023-04-17T04:11:59.641Z,48.99
2023-04-17T04:14:26.227Z,49.45
2023-04-17T04:16:52.833Z,48.98
2023-04-17T04:19:19.414Z,48.77
2023-04-17T04:21:45.998Z,48.83
2023-04-17T04:24:12.699Z,49.17
2023-04-17T04:26:39.252Z,49.99
2023-04-17T04:29:05.841Z,49.58
2023-04-17T04:31:33.041Z,49.60
2023-04-17T04:33:59.770Z,49.38
2023-04-17T04:36:26.359Z,48.99
2023-04-17T04:38:53.076Z,48.75
2023-04-17T04:41:19.633Z,49.64
2023-04-17T04:43:46.332Z,49.29
2023-04-17T04:46:12.977Z,49.14
2023-04-17T04:48:42.544Z,49.20
2023-04-17T04:51:09.514Z,49.51
2023-04-17T04:53:36.119Z,49.09
2023-04-17T04:56:02.708Z,49.81
2023-04-17T04:58:29.293Z,49.94
2023-04-17T05:00:55.975Z,51.01
2023-04-17T05:03:22.973Z,49.61
2023-04-17T05:05:49.725Z,49.79
2023-04-17T05:08:16.293Z,49.50
2023-04-17T05:10:42.997Z,49.03
2023-04-17T05:13:09.621Z,48.57
2023-04-17T05:15:36.318Z,48.57
2023-04-17T05:18:02.921Z,48.48
2023-04-17T05:20:29.627Z,50.27
2023-04-17T05:22:56.228Z,50.41
2023-04-17T05:25:22.863Z,50.04
2023-04-17T05:27:49.462Z,49.28
2023-04-17T05:30:16.031Z,48.98
2023-04-17T05:32:42.662Z,48.81
2023-04-17T05:35:09.278Z,48.64
2023-04-17T05:37:35.862Z,48.50
2023-04-17T05:40:02.455Z,49.43
2023-04-17T05:42:29.112Z,49.31
2023-04-17T05:44:55.735Z,49.16
2023-04-17T05:47:22.507Z,49.21
2023-04-17T05:49:49.113Z,49.67
2023-04-17T05:52:15.778Z,49.57
2023-04-17T05:54:42.472Z,49.99
2023-04-17T05:57:09.268Z,49.30
2023-04-17T05:59:35.840Z,48.58
2023-04-17T06:02:02.554Z,49.13
2023-04-17T06:04:29.474Z,49.00
2023-04-17T06:06:56.183Z,48.52
2023-04-17T06:09:23.953Z,48.17
2023-04-17T06:11:52.318Z,49.31
2023-04-17T06:14:20.806Z,49.22
2023-04-17T06:16:47.651Z,48.31
2023-04-17T06:19:14.465Z,48.08
2023-04-17T06:21:41.292Z,47.78
2023-04-17T06:24:07.876Z,47.96
2023-04-17T06:26:34.485Z,47.85
2023-04-17T06:29:02.062Z,47.70
2023-04-17T06:31:28.830Z,47.97
2023-04-17T06:33:55.422Z,47.90
2023-04-17T06:36:22.083Z,47.46
2023-04-17T06:38:48.726Z,47.66
2023-04-17T06:41:15.318Z,47.36
2023-04-17T06:43:41.915Z,47.09
2023-04-17T06:46:08.549Z,46.98
2023-04-17T06:48:35.195Z,46.93
2023-04-17T06:51:01.816Z,46.70
2023-04-17T06:53:28.438Z,46.61
2023-04-17T06:55:55.125Z,47.03
2023-04-17T06:58:21.682Z,45.65
2023-04-17T07:00:48.335Z,45.91
2023-04-17T07:03:15.039Z,46.63
2023-04-17T07:05:41.716Z,46.17
2023-04-17T07:08:08.314Z,47.22
2023-04-17T07:10:34.893Z,45.28
2023-04-17T07:13:01.549Z,45.69
2023-04-17T07:15:28.309Z,45.35
2023-04-17T07:17:54.979Z,45.00
2023-04-17T07:20:21.592Z,45.13
2023-04-17T07:22:48.203Z,45.51
2023-04-17T07:25:15.702Z,44.54
2023-04-17T07:27:42.271Z,45.25
2023-04-17T07:30:08.887Z,44.23
2023-04-17T07:32:35.528Z,44.21
2023-04-17T07:35:02.142Z,44.41
2023-04-17T07:37:28.701Z,44.00
2023-04-17T07:39:55.319Z,43.17
2023-04-17T07:42:21.910Z,44.89
2023-04-17T07:44:48.470Z,44.74
2023-04-17T07:47:15.687Z,44.01
2023-04-17T07:49:42.312Z,43.95
2023-04-17T07:52:08.918Z,43.82
2023-04-17T07:54:35.480Z,44.38
2023-04-17T07:57:02.079Z,44.73
2023-04-17T07:59:28.713Z,43.57
2023-04-17T08:01:55.391Z,44.05
2023-04-17T08:04:22.209Z,43.89
2023-04-17T08:06:48.860Z,43.69
2023-04-17T08:09:15.457Z,43.55
2023-04-17T08:11:53.765Z,43.28
2023-04-17T08:14:23.929Z,43.69
2023-04-17T08:16:50.608Z,43.77
2023-04-17T08:19:17.245Z,43.36
2023-04-17T08:21:43.835Z,43.13
2023-04-17T08:24:10.396Z,43.53
2023-04-17T08:26:37.030Z,43.61
2023-04-17T08:29:03.632Z,42.78
2023-04-17T08:31:30.236Z,44.47
2023-04-17T08:34:10.377Z,43.97
2023-04-17T08:36:40.732Z,43.63
2023-04-17T08:39:07.323Z,43.56
2023-04-17T08:41:33.876Z,43.58
2023-04-17T08:44:00.528Z,43.00
2023-04-17T08:46:27.234Z,42.06
2023-04-17T08:48:53.872Z,42.28
2023-04-17T08:51:20.468Z,41.88
2023-04-17T08:53:47.060Z,42.25
2023-04-17T08:56:13.640Z,42.26
2023-04-17T08:58:40.196Z,42.33
2023-04-17T09:01:06.835Z,41.53
2023-04-17T09:03:33.548Z,42.16
2023-04-17T09:06:00.291Z,42.13
2023-04-17T09:08:26.918Z,42.21
2023-04-17T09:10:53.582Z,41.41
2023-04-17T09:13:20.242Z,41.26
2023-04-17T09:15:46.901Z,41.92
2023-04-17T09:18:13.570Z,41.30
2023-04-17T09:20:40.150Z,41.42
2023-04-17T09:23:06.727Z,40.13
2023-04-17T09:25:33.308Z,40.47
2023-04-17T09:27:59.918Z,40.57
2023-04-17T09:30:26.537Z,41.44
2023-04-17T09:32:53.165Z,40.52
2023-04-17T09:35:19.804Z,40.65
2023-04-17T09:37:46.486Z,40.33
2023-04-17T09:40:13.191Z,40.21
2023-04-17T09:42:39.779Z,39.74
2023-04-17T09:45:06.390Z,39.73
2023-04-17T09:47:32.976Z,39.09
2023-04-17T09:49:59.608Z,38.65
2023-04-17T09:52:26.213Z,39.12
2023-04-17T09:54:52.834Z,38.91
2023-04-17T09:57:19.422Z,38.57
2023-04-17T09:59:46.063Z,39.06
2023-04-17T10:02:12.795Z,39.33
2023-04-17T10:04:39.532Z,40.04
2023-04-17T10:07:06.189Z,39.65
2023-04-17T10:09:32.758Z,37.61
2023-04-17T10:11:59.468Z,38.63
2023-04-17T10:14:26.172Z,39.49
2023-04-17T10:16:53.092Z,38.15
2023-04-17T10:19:19.761Z,38.14
2023-04-17T10:21:46.353Z,38.15
2023-04-17T10:24:13.117Z,37.71
2023-04-17T10:26:39.854Z,38.04
2023-04-17T10:29:06.738Z,38.66
2023-04-17T10:31:33.432Z,37.64
2023-04-17T10:34:00.087Z,38.24
2023-04-17T10:36:26.700Z,39.35
2023-04-17T10:38:53.483Z,38.53
2023-04-17T10:41:20.124Z,38.61
2023-04-17T10:43:46.722Z,38.67
2023-04-17T10:46:13.437Z,38.87
2023-04-17T10:48:40.167Z,38.72
2023-04-17T10:51:06.803Z,38.96
2023-04-17T10:53:33.413Z,38.96
2023-04-17T10:55:59.996Z,38.24
2023-04-17T10:58:31.671Z,37.78
2023-04-17T11:00:58.637Z,37.75
2023-04-17T11:03:25.336Z,37.67
2023-04-17T11:05:52.022Z,38.69
2023-04-17T11:08:18.611Z,37.63
2023-04-17T11:10:45.219Z,37.52
2023-04-17T11:13:11.792Z,36.72
2023-04-17T11:15:38.474Z,37.75
2023-04-17T11:18:05.148Z,37.26
2023-04-17T11:20:31.769Z,37.84
2023-04-17T11:22:58.393Z,38.09
2023-04-17T11:25:25.177Z,37.69
2023-04-17T11:27:51.766Z,37.50
2023-04-17T11:30:18.343Z,37.37
2023-04-17T11:32:44.981Z,37.71
2023-04-17T11:35:11.644Z,37.79
2023-04-17T11:37:38.378Z,36.96
2023-04-17T11:40:05.064Z,38.06
2023-04-17T11:42:31.632Z,37.39
2023-04-17T11:44:58.298Z,37.38
2023-04-17T11:47:25.108Z,37.62
2023-04-17T11:49:51.982Z,37.07
2023-04-17T11:52:18.591Z,36.60
2023-04-17T11:54:45.169Z,37.07
2023-04-17T11:57:11.801Z,35.94
2023-04-17T11:59:38.366Z,35.05
2023-04-17T12:02:05.023Z,34.37
2023-04-17T12:04:31.881Z,34.47
2023-04-17T12:06:59.770Z,36.07
2023-04-17T12:09:26.461Z,36.63
2023-04-17T12:11:53.104Z,36.47
2023-04-17T12:14:19.709Z,35.44
2023-04-17T12:16:46.334Z,36.28
2023-04-17T12:19:13.157Z,36.41
2023-04-17T12:21:39.873Z,35.27
2023-04-17T12:24:06.515Z,35.11
2023-04-17T12:26:33.092Z,37.12
2023-04-17T12:28:59.716Z,36.26
2023-04-17T12:31:26.702Z,36.11
2023-04-17T12:33:53.375Z,35.90
2023-04-17T12:36:20.146Z,36.13
2023-04-17T12:38:46.771Z,36.19
2023-04-17T12:41:13.709Z,35.48
2023-04-17T12:43:40.309Z,37.02
2023-04-17T12:46:07.030Z,37.81
2023-04-17T12:48:33.645Z,38.85
2023-04-17T12:51:00.428Z,36.14
2023-04-17T12:53:27.046Z,35.66
2023-04-17T12:55:53.646Z,33.58
2023-04-17T12:58:20.205Z,34.61
2023-04-17T13:00:47.208Z,33.93
2023-04-17T13:03:13.958Z,34.86
2023-04-17T13:05:40.621Z,35.42
2023-04-17T13:08:07.209Z,35.57
2023-04-17T13:10:34.220Z,36.03
2023-04-17T13:13:01.173Z,35.73
2023-04-17T13:15:28.053Z,35.68
2023-04-17T13:17:54.737Z,36.92
2023-04-17T13:20:21.688Z,36.26
2023-04-17T13:22:48.522Z,36.12
2023-04-17T13:25:15.094Z,34.91
2023-04-17T13:27:41.714Z,35.47
2023-04-17T13:30:08.345Z,35.70
2023-04-17T13:32:35.336Z,35.38
2023-04-17T13:35:01.974Z,35.37
2023-04-17T13:37:28.574Z,34.40
2023-04-17T13:39:55.141Z,35.38
2023-04-17T13:42:21.745Z,35.20
2023-04-17T13:44:48.344Z,34.47
2023-04-17T13:47:15.806Z,35.43
2023-04-17T13:49:42.390Z,35.00
2023-04-17T13:52:09.002Z,35.72
2023-04-17T13:54:35.586Z,34.84
2023-04-17T13:57:02.186Z,34.85
2023-04-17T13:59:29.060Z,35.23
2023-04-17T14:01:55.784Z,34.84
2023-04-17T14:04:22.664Z,33.14
2023-04-17T14:06:49.320Z,33.67
2023-04-17T14:09:15.918Z,32.89
2023-04-17T14:11:42.487Z,32.81
2023-04-17T14:14:09.086Z,32.26
2023-04-17T14:16:35.641Z,32.63
2023-04-17T14:19:12.655Z,32.33
2023-04-17T14:21:40.948Z,32.02
2023-04-17T14:24:07.513Z,32.09
2023-04-17T14:26:34.209Z,33.35
2023-04-17T14:29:00.798Z,33.23
2023-04-17T14:31:27.410Z,34.42
2023-04-17T14:33:54.024Z,34.39
2023-04-17T14:36:20.986Z,34.41
2023-04-17T14:38:47.687Z,34.43
2023-04-17T14:41:14.290Z,34.67
2023-04-17T14:43:40.896Z,33.82
2023-04-17T14:46:07.520Z,34.00
2023-04-17T14:48:41.106Z,33.25
2023-04-17T14:51:18.715Z,33.86
2023-04-17T14:53:45.316Z,33.98
2023-04-17T14:56:11.979Z,35.37
2023-04-17T14:58:38.578Z,35.73
2023-04-17T15:01:05.245Z,35.18
2023-04-17T15:03:32.040Z,34.03
2023-04-17T15:05:59.048Z,33.04
2023-04-17T15:08:25.672Z,33.51
2023-04-17T15:10:52.283Z,34.15
2023-04-17T15:13:18.881Z,32.81
2023-04-17T15:15:45.447Z,32.83
2023-04-17T15:18:12.024Z,33.08
2023-04-17T15:20:38.600Z,33.42
2023-04-17T15:23:05.175Z,34.32
2023-04-17T15:25:31.798Z,33.98
2023-04-17T15:27:58.361Z,33.70
2023-04-17T15:30:24.962Z,33.83
2023-04-17T15:32:51.549Z,33.48
2023-04-17T15:35:18.157Z,34.34
2023-04-17T15:37:44.831Z,33.34
2023-04-17T15:40:11.434Z,33.86
2023-04-17T15:42:38.052Z,32.25
2023-04-17T15:45:04.621Z,32.34
2023-04-17T15:47:31.304Z,33.43
2023-04-17T15:49:58.043Z,34.11
2023-04-17T15:52:24.694Z,33.41
2023-04-17T15:54:51.333Z,32.58
2023-04-17T15:57:18.193Z,33.05
2023-04-17T15:59:44.783Z,33.50
2023-04-17T16:02:11.513Z,33.30
2023-04-17T16:04:38.500Z,33.56
2023-04-17T16:07:05.374Z,34.30
2023-04-17T16:09:31.953Z,33.85
2023-04-17T16:11:58.538Z,33.93
2023-04-17T16:14:25.164Z,33.54
2023-04-17T16:16:51.723Z,33.02
2023-04-17T16:19:18.303Z,33.01
2023-04-17T16:21:44.903Z,33.37
2023-04-17T16:24:11.489Z,33.92
2023-04-17T16:26:38.034Z,33.19
2023-04-17T16:29:04.635Z,33.83
2023-04-17T16:31:31.256Z,34.80
2023-04-17T16:33:57.963Z,33.78
2023-04-17T16:36:24.571Z,34.10
2023-04-17T16:38:51.151Z,34.20
2023-04-17T16:41:17.738Z,34.07
2023-04-17T16:43:44.336Z,33.75
2023-04-17T16:46:20.601Z,34.13
2023-04-17T16:48:49.523Z,35.04
2023-04-17T16:51:16.218Z,34.76
2023-04-17T16:53:42.944Z,34.52
2023-04-17T16:56:09.548Z,35.00
2023-04-17T16:58:36.217Z,35.20
2023-04-17T17:01:02.850Z,36.10
2023-04-17T17:03:29.465Z,35.92
2023-04-17T17:05:56.044Z,36.29
2023-04-17T17:08:22.597Z,36.59
2023-04-17T17:10:49.238Z,36.72
2023-04-17T17:13:15.797Z,37.82
2023-04-17T17:15:42.397Z,37.88
2023-04-17T17:18:09.008Z,38.16
2023-04-17T17:20:35.604Z,38.16
2023-04-17T17:23:02.455Z,38.67
2023-04-17T17:25:29.445Z,37.99
2023-04-17T17:27:56.158Z,37.44
2023-04-17T17:30:23.113Z,37.90
2023-04-17T17:32:49.771Z,38.04
2023-04-17T17:35:16.369Z,38.20
2023-04-17T17:37:42.980Z,39.02
2023-04-17T17:40:09.938Z,38.78
2023-04-17T17:42:36.527Z,39.15
2023-04-17T17:45:03.084Z,39.22
2023-04-17T17:47:29.772Z,39.43
2023-04-17T17:49:56.397Z,39.55
2023-04-17T17:52:23.107Z,39.30
2023-04-17T17:54:49.695Z,39.56
2023-04-17T17:57:16.325Z,39.44
2023-04-17T17:59:42.913Z,39.77
2023-04-17T18:02:09.647Z,40.00
2023-04-17T18:04:36.384Z,40.42
2023-04-17T18:07:03.413Z,40.68
2023-04-17T18:09:30.044Z,40.75
2023-04-17T18:11:56.624Z,41.51
2023-04-17T18:14:23.213Z,40.92
2023-04-17T18:16:49.777Z,40.87
2023-04-17T18:19:16.397Z,41.07
2023-04-17T18:21:44.192Z,41.66
2023-04-17T18:24:12.441Z,41.51
2023-04-17T18:26:39.376Z,41.80
2023-04-17T18:29:06.120Z,41.84
2023-04-17T18:31:32.763Z,41.67
2023-04-17T18:33:59.356Z,42.05
2023-04-17T18:36:25.913Z,42.54
2023-04-17T18:38:52.505Z,42.51
2023-04-17T18:41:19.114Z,42.69
2023-04-17T18:43:45.706Z,42.21
2023-04-17T18:46:12.456Z,42.31
2023-04-17T18:48:39.083Z,42.05
2023-04-17T18:51:05.828Z,42.76
2023-04-17T18:53:32.433Z,43.27
2023-04-17T18:55:59.062Z,42.91
2023-04-17T18:58:25.682Z,43.20
2023-04-17T19:00:52.303Z,43.12
2023-04-17T19:03:18.919Z,43.15
2023-04-17T19:05:45.595Z,44.01
2023-04-17T19:08:12.212Z,46.58
2023-04-17T19:10:40.104Z,45.09
2023-04-17T19:13:06.880Z,45.00
2023-04-17T19:15:33.537Z,44.34
2023-04-17T19:18:00.248Z,45.47
2023-04-17T19:20:26.860Z,45.11
2023-04-17T19:22:53.450Z,45.18
2023-04-17T19:25:20.037Z,44.92
2023-04-17T19:27:46.677Z,44.42
2023-04-17T19:30:13.340Z,44.34
2023-04-17T19:32:39.927Z,44.24
2023-04-17T19:35:06.570Z,44.38
2023-04-17T19:37:33.154Z,44.79
2023-04-17T19:39:59.850Z,45.11
2023-04-17T19:42:27.035Z,45.65
2023-04-17T19:44:53.614Z,45.30
2023-04-17T19:47:20.187Z,46.29
2023-04-17T19:49:46.796Z,46.20
2023-04-17T19:52:13.385Z,45.96
2023-04-17T19:54:40.030Z,45.79
2023-04-17T19:57:06.621Z,45.46
2023-04-17T19:59:33.531Z,45.55
2023-04-17T20:02:00.145Z,45.88
2023-04-17T20:04:27.167Z,45.77
2023-04-17T20:06:54.223Z,45.38
2023-04-17T20:09:20.810Z,45.48
2023-04-17T20:11:47.378Z,45.50
2023-04-17T20:14:14.106Z,45.97
2023-04-17T20:16:40.781Z,46.06
2023-04-17T20:19:07.360Z,46.64
2023-04-17T20:21:33.986Z,46.01
2023-04-17T20:24:00.628Z,46.42
2023-04-17T20:26:27.258Z,47.16
2023-04-17T20:28:53.857Z,47.29
2023-04-17T20:31:20.455Z,46.95
2023-04-17T20:33:47.094Z,46.13
2023-04-17T20:36:13.690Z,47.45
2023-04-17T20:38:40.295Z,46.88
2023-04-17T20:41:06.857Z,46.12
2023-04-17T20:43:33.421Z,47.31
2023-04-17T20:46:00.133Z,47.12
2023-04-17T20:48:27.174Z,47.09
2023-04-17T20:50:53.785Z,48.22
2023-04-17T20:53:20.357Z,47.90
2023-04-17T20:55:47.075Z,48.51
2023-04-17T20:58:13.892Z,48.82
2023-04-17T21:00:50.699Z,47.81
2023-04-17T21:03:24.900Z,48.52
2023-04-17T21:05:51.520Z,48.34
2023-04-17T21:08:18.113Z,48.54
2023-04-17T21:10:44.671Z,48.66
2023-04-17T21:13:11.266Z,48.65
2023-04-17T21:15:37.850Z,48.76
2023-04-17T21:18:04.468Z,48.93
2023-04-17T21:20:31.093Z,48.92
2023-04-17T21:22:57.680Z,49.37
2023-04-17T21:25:24.242Z,49.28
2023-04-17T21:27:51.047Z,49.34
2023-04-17T21:30:17.615Z,49.98
2023-04-17T21:32:44.237Z,49.96
2023-04-17T21:35:10.849Z,50.00
2023-04-17T21:37:37.404Z,50.27
2023-04-17T21:40:03.983Z,50.82
2023-04-17T21:42:30.576Z,50.52
2023-04-17T21:44:57.170Z,50.33
2023-04-17T21:47:23.885Z,50.23
2023-04-17T21:49:50.723Z,49.76
2023-04-17T21:52:17.305Z,50.49
2023-04-17T21:54:43.861Z,49.98
2023-04-17T21:57:10.459Z,50.00
2023-04-17T21:59:37.032Z,50.57
2023-04-17T22:02:03.647Z,49.53
2023-04-17T22:04:30.272Z,49.75
2023-04-17T22:06:57.090Z,49.43
2023-04-17T22:09:23.667Z,50.40
2023-04-17T22:11:50.252Z,50.22
2023-04-17T22:14:16.943Z,49.99
2023-04-17T22:16:43.605Z,49.94
2023-04-17T22:19:10.236Z,49.97
2023-04-17T22:21:36.842Z,50.16
2023-04-17T22:24:03.405Z,50.66
2023-04-17T22:26:29.998Z,50.56
2023-04-17T22:28:56.556Z,51.08
2023-04-17T22:31:23.184Z,50.90
2023-04-17T22:33:49.790Z,50.32
2023-04-17T22:36:16.398Z,50.04
2023-04-17T22:38:43.012Z,51.20
2023-04-17T22:41:09.582Z,50.15
2023-04-17T22:43:36.617Z,50.29
2023-04-17T22:46:03.217Z,50.11
2023-04-17T22:48:29.901Z,50.84
2023-04-17T22:50:56.535Z,51.06
2023-04-17T22:53:23.151Z,50.90
2023-04-17T22:55:49.747Z,51.15
2023-04-17T22:58:16.391Z,51.04
2023-04-17T23:00:43.079Z,51.32
2023-04-17T23:03:09.839Z,51.10
2023-04-17T23:05:36.625Z,51.40
2023-04-17T23:08:03.235Z,51.63
2023-04-17T23:10:29.801Z,51.66
2023-04-17T23:12:56.393Z,52.02
2023-04-17T23:15:23.061Z,51.96
2023-04-17T23:17:49.651Z,53.89
2023-04-17T23:20:16.320Z,53.13
2023-04-17T23:22:42.931Z,53.31
2023-04-17T23:25:09.530Z,53.09
2023-04-17T23:27:36.192Z,53.09
2023-04-17T23:30:02.846Z,53.96
2023-04-17T23:32:29.455Z,53.72
2023-04-17T23:34:56.030Z,53.78
2023-04-17T23:37:22.600Z,53.61
2023-04-17T23:39:49.237Z,54.82
2023-04-17T23:42:15.810Z,54.22
2023-04-17T23:44:42.496Z,54.03
2023-04-17T23:47:09.120Z,54.64
2023-04-17T23:49:35.796Z,54.64
2023-04-17T23:52:02.459Z,54.93
2023-04-17T23:54:29.077Z,56.07
2023-04-17T23:56:55.669Z,55.08
2023-04-17T23:59:22.261Z,55.17
